sensor_id;sensor_type;location;lat;lon;timestamp;temperature;humidity
1686;DHT22;840;47.980;7.830;2023-05-07T00:00:23;16.40;99.90
1686;DHT22;840;47.980;7.830;2023-05-07T00:02:51;16.40;99.90
1686;DHT22;840;47.980;7.830;2023-05-07T00:05:18;16.30;99.90
1686;DHT22;840;47.980;7.830;2023-05-07T00:07:47;16.30;99.90
1686;DHT22;840;47.980;7.830;2023-05-07T00:10:14;16.30;99.90
1686;DHT22;840;47.980;7.830;2023-05-07T00:12:40;16.30;99.90
1686;DHT22;840;47.980;7.830;2023-05-07T00:15:08;16.20;99.90
1686;DHT22;840;47.980;7.830;2023-05-07T00:17:35;16.20;99.90
1686;DHT22;840;47.980;7.830;2023-05-07T00:20:02;16.20;99.90
1686;DHT22;840;47.980;7.830;2023-05-07T00:22:30;16.20;99.90
1686;DHT22;840;47.980;7.830;2023-05-07T00:24:59;16.20;99.90
1686;DHT22;840;47.980;7.830;2023-05-07T00:27:25;16.20;99.90
1686;DHT22;840;47.980;7.830;2023-05-07T00:29:52;16.10;99.90
1686;DHT22;840;47.980;7.830;2023-05-07T00:32:19;16.20;99.90
1686;DHT22;840;47.980;7.830;2023-05-07T00:34:46;16.20;99.90
1686;DHT22;840;47.980;7.830;2023-05-07T00:37:13;16.10;99.90
1686;DHT22;840;47.980;7.830;2023-05-07T00:39:40;16.20;99.90
1686;DHT22;840;47.980;7.830;2023-05-07T00:42:08;16.20;99.90
1686;DHT22;840;47.980;7.830;2023-05-07T00:44:35;16.20;99.90
1686;DHT22;840;47.980;7.830;2023-05-07T00:47:03;16.20;99.90
1686;DHT22;840;47.980;7.830;2023-05-07T00:49:36;16.20;99.90
1686;DHT22;840;47.980;7.830;2023-05-07T00:52:04;16.20;99.90
1686;DHT22;840;47.980;7.830;2023-05-07T00:54:32;16.20;99.90
1686;DHT22;840;47.980;7.830;2023-05-07T00:57:01;16.20;99.90
1686;DHT22;840;47.980;7.830;2023-05-07T00:59:30;16.20;99.90
1686;DHT22;840;47.980;7.830;2023-05-07T01:01:58;16.10;99.90
1686;DHT22;840;47.980;7.830;2023-05-07T01:04:26;16.10;99.90
1686;DHT22;840;47.980;7.830;2023-05-07T01:06:55;16.20;99.90
1686;DHT22;840;47.980;7.830;2023-05-07T01:09:23;16.10;99.90
1686;DHT22;840;47.980;7.830;2023-05-07T01:11:50;16.10;99.90
1686;DHT22;840;47.980;7.830;2023-05-07T01:14:18;16.10;99.90
1686;DHT22;840;47.980;7.830;2023-05-07T01:16:47;16.10;99.90
1686;DHT22;840;47.980;7.830;2023-05-07T01:19:17;16.10;99.90
1686;DHT22;840;47.980;7.830;2023-05-07T01:21:46;16.00;99.90
1686;DHT22;840;47.980;7.830;2023-05-07T01:24:15;16.00;99.90
1686;DHT22;840;47.980;7.830;2023-05-07T01:26:43;15.90;99.90
1686;DHT22;840;47.980;7.830;2023-05-07T01:29:10;15.90;99.90
1686;DHT22;840;47.980;7.830;2023-05-07T01:31:37;15.90;99.90
1686;DHT22;840;47.980;7.830;2023-05-07T01:34:07;15.80;99.90
1686;DHT22;840;47.980;7.830;2023-05-07T01:36:36;15.90;99.90
1686;DHT22;840;47.980;7.830;2023-05-07T01:39:04;15.80;99.90
1686;DHT22;840;47.980;7.830;2023-05-07T01:41:33;15.80;99.90
1686;DHT22;840;47.980;7.830;2023-05-07T01:44:00;15.80;99.90
1686;DHT22;840;47.980;7.830;2023-05-07T01:46:28;15.80;99.90
1686;DHT22;840;47.980;7.830;2023-05-07T01:48:55;15.80;99.90
1686;DHT22;840;47.980;7.830;2023-05-07T01:51:21;15.70;99.90
1686;DHT22;840;47.980;7.830;2023-05-07T01:53:49;15.70;99.90
1686;DHT22;840;47.980;7.830;2023-05-07T01:56:16;15.60;99.90
1686;DHT22;840;47.980;7.830;2023-05-07T01:58:44;15.60;99.90
1686;DHT22;840;47.980;7.830;2023-05-07T02:01:12;15.60;99.90
1686;DHT22;840;47.980;7.830;2023-05-07T02:03:39;15.50;99.90
1686;DHT22;840;47.980;7.830;2023-05-07T02:06:05;15.50;99.90
1686;DHT22;840;47.980;7.830;2023-05-07T02:08:32;15.50;99.90
1686;DHT22;840;47.980;7.830;2023-05-07T02:10:59;15.50;99.90
1686;DHT22;840;47.980;7.830;2023-05-07T02:13:28;15.50;99.90
1686;DHT22;840;47.980;7.830;2023-05-07T02:15:57;15.40;99.90
1686;DHT22;840;47.980;7.830;2023-05-07T02:18:23;15.40;99.90
1686;DHT22;840;47.980;7.830;2023-05-07T02:20:50;15.40;99.90
1686;DHT22;840;47.980;7.830;2023-05-07T02:23:17;15.30;99.90
1686;DHT22;840;47.980;7.830;2023-05-07T02:25:44;15.30;99.90
1686;DHT22;840;47.980;7.830;2023-05-07T02:28:11;15.30;99.90
1686;DHT22;840;47.980;7.830;2023-05-07T02:30:38;15.20;99.90
1686;DHT22;840;47.980;7.830;2023-05-07T02:33:07;15.20;99.90
1686;DHT22;840;47.980;7.830;2023-05-07T02:35:34;15.10;99.90
1686;DHT22;840;47.980;7.830;2023-05-07T02:38:01;15.00;99.90
1686;DHT22;840;47.980;7.830;2023-05-07T02:40:28;15.00;99.90
1686;DHT22;840;47.980;7.830;2023-05-07T02:42:55;15.00;99.90
1686;DHT22;840;47.980;7.830;2023-05-07T02:45:22;14.90;99.90
1686;DHT22;840;47.980;7.830;2023-05-07T02:47:49;15.00;99.90
1686;DHT22;840;47.980;7.830;2023-05-07T02:50:17;14.90;99.90
1686;DHT22;840;47.980;7.830;2023-05-07T02:52:44;14.90;99.90
1686;DHT22;840;47.980;7.830;2023-05-07T02:55:12;14.90;99.90
1686;DHT22;840;47.980;7.830;2023-05-07T02:57:42;14.90;99.90
1686;DHT22;840;47.980;7.830;2023-05-07T03:00:14;14.80;99.90
1686;DHT22;840;47.980;7.830;2023-05-07T03:02:41;14.80;99.90
1686;DHT22;840;47.980;7.830;2023-05-07T03:05:08;14.80;99.90
1686;DHT22;840;47.980;7.830;2023-05-07T03:07:36;14.80;99.90
1686;DHT22;840;47.980;7.830;2023-05-07T03:10:03;14.80;99.90
1686;DHT22;840;47.980;7.830;2023-05-07T03:12:30;14.80;99.90
1686;DHT22;840;47.980;7.830;2023-05-07T03:14:57;14.70;99.90
1686;DHT22;840;47.980;7.830;2023-05-07T03:17:24;14.70;99.90
1686;DHT22;840;47.980;7.830;2023-05-07T03:19:51;14.70;99.90
1686;DHT22;840;47.980;7.830;2023-05-07T03:22:18;14.60;99.90
1686;DHT22;840;47.980;7.830;2023-05-07T03:24:46;14.60;99.90
1686;DHT22;840;47.980;7.830;2023-05-07T03:27:13;14.60;99.90
1686;DHT22;840;47.980;7.830;2023-05-07T03:29:39;14.50;99.90
1686;DHT22;840;47.980;7.830;2023-05-07T03:32:06;14.50;99.90
1686;DHT22;840;47.980;7.830;2023-05-07T03:34:33;14.40;99.90
1686;DHT22;840;47.980;7.830;2023-05-07T03:37:00;14.40;99.90
1686;DHT22;840;47.980;7.830;2023-05-07T03:39:26;14.40;99.90
1686;DHT22;840;47.980;7.830;2023-05-07T03:41:55;14.40;99.90
1686;DHT22;840;47.980;7.830;2023-05-07T03:44:22;14.40;99.90
1686;DHT22;840;47.980;7.830;2023-05-07T03:46:49;14.50;99.90
1686;DHT22;840;47.980;7.830;2023-05-07T03:49:15;14.50;99.90
1686;DHT22;840;47.980;7.830;2023-05-07T03:51:42;14.40;99.90
1686;DHT22;840;47.980;7.830;2023-05-07T03:54:09;14.40;99.90
1686;DHT22;840;47.980;7.830;2023-05-07T03:56:35;14.40;99.90
1686;DHT22;840;47.980;7.830;2023-05-07T03:59:04;14.40;99.90
1686;DHT22;840;47.980;7.830;2023-05-07T04:01:31;14.40;99.90
1686;DHT22;840;47.980;7.830;2023-05-07T04:03:57;14.40;99.90
1686;DHT22;840;47.980;7.830;2023-05-07T04:06:24;14.40;99.90
1686;DHT22;840;47.980;7.830;2023-05-07T04:08:51;14.40;99.90
1686;DHT22;840;47.980;7.830;2023-05-07T04:11:18;14.40;99.90
1686;DHT22;840;47.980;7.830;2023-05-07T04:13:45;14.40;99.90
1686;DHT22;840;47.980;7.830;2023-05-07T04:16:16;14.30;99.90
1686;DHT22;840;47.980;7.830;2023-05-07T04:18:43;14.30;99.90
1686;DHT22;840;47.980;7.830;2023-05-07T04:21:14;14.30;99.90
1686;DHT22;840;47.980;7.830;2023-05-07T04:23:41;14.40;99.90
1686;DHT22;840;47.980;7.830;2023-05-07T04:26:08;14.40;99.90
1686;DHT22;840;47.980;7.830;2023-05-07T04:28:35;14.40;99.90
1686;DHT22;840;47.980;7.830;2023-05-07T04:31:02;14.40;99.90
1686;DHT22;840;47.980;7.830;2023-05-07T04:33:30;14.40;99.90
1686;DHT22;840;47.980;7.830;2023-05-07T04:35:56;14.40;99.90
1686;DHT22;840;47.980;7.830;2023-05-07T04:38:23;14.40;99.90
1686;DHT22;840;47.980;7.830;2023-05-07T04:40:50;14.40;99.90
1686;DHT22;840;47.980;7.830;2023-05-07T04:43:18;14.40;99.90
1686;DHT22;840;47.980;7.830;2023-05-07T04:45:45;14.40;99.90
1686;DHT22;840;47.980;7.830;2023-05-07T04:48:12;14.40;99.90
1686;DHT22;840;47.980;7.830;2023-05-07T04:50:42;14.50;99.90
1686;DHT22;840;47.980;7.830;2023-05-07T04:53:09;14.50;99.90
1686;DHT22;840;47.980;7.830;2023-05-07T04:55:36;14.60;99.90
1686;DHT22;840;47.980;7.830;2023-05-07T04:58:03;14.60;99.90
1686;DHT22;840;47.980;7.830;2023-05-07T05:00:30;14.70;99.90
1686;DHT22;840;47.980;7.830;2023-05-07T05:02:57;14.80;99.90
1686;DHT22;840;47.980;7.830;2023-05-07T05:05:24;14.90;99.90
1686;DHT22;840;47.980;7.830;2023-05-07T05:07:53;14.90;99.90
1686;DHT22;840;47.980;7.830;2023-05-07T05:10:21;15.00;99.90
1686;DHT22;840;47.980;7.830;2023-05-07T05:12:48;15.00;99.90
1686;DHT22;840;47.980;7.830;2023-05-07T05:15:15;15.10;99.90
1686;DHT22;840;47.980;7.830;2023-05-07T05:17:41;15.20;99.90
1686;DHT22;840;47.980;7.830;2023-05-07T05:20:09;15.30;99.90
1686;DHT22;840;47.980;7.830;2023-05-07T05:22:37;15.30;99.90
1686;DHT22;840;47.980;7.830;2023-05-07T05:25:06;15.40;99.90
1686;DHT22;840;47.980;7.830;2023-05-07T05:27:33;15.50;99.90
1686;DHT22;840;47.980;7.830;2023-05-07T05:30:01;15.60;99.90
1686;DHT22;840;47.980;7.830;2023-05-07T05:32:27;15.60;99.90
1686;DHT22;840;47.980;7.830;2023-05-07T05:34:55;15.70;99.90
1686;DHT22;840;47.980;7.830;2023-05-07T05:37:22;15.80;99.90
1686;DHT22;840;47.980;7.830;2023-05-07T05:39:49;15.90;99.90
1686;DHT22;840;47.980;7.830;2023-05-07T05:42:18;15.90;99.90
1686;DHT22;840;47.980;7.830;2023-05-07T05:44:45;16.00;99.90
1686;DHT22;840;47.980;7.830;2023-05-07T05:47:12;16.10;99.90
1686;DHT22;840;47.980;7.830;2023-05-07T05:49:39;16.10;99.90
1686;DHT22;840;47.980;7.830;2023-05-07T05:52:08;16.10;99.90
1686;DHT22;840;47.980;7.830;2023-05-07T05:54:35;16.10;99.90
1686;DHT22;840;47.980;7.830;2023-05-07T05:57:02;16.20;99.90
1686;DHT22;840;47.980;7.830;2023-05-07T05:59:31;16.30;99.90
1686;DHT22;840;47.980;7.830;2023-05-07T06:01:58;16.20;99.90
1686;DHT22;840;47.980;7.830;2023-05-07T06:04:25;16.20;99.90
1686;DHT22;840;47.980;7.830;2023-05-07T06:06:52;16.30;99.90
1686;DHT22;840;47.980;7.830;2023-05-07T06:09:19;16.30;99.90
1686;DHT22;840;47.980;7.830;2023-05-07T06:11:46;16.30;99.90
1686;DHT22;840;47.980;7.830;2023-05-07T06:14:13;16.40;99.90
1686;DHT22;840;47.980;7.830;2023-05-07T06:16:41;16.50;99.90
1686;DHT22;840;47.980;7.830;2023-05-07T06:19:08;16.60;99.90
1686;DHT22;840;47.980;7.830;2023-05-07T06:21:35;16.70;99.90
1686;DHT22;840;47.980;7.830;2023-05-07T06:24:02;16.70;99.90
1686;DHT22;840;47.980;7.830;2023-05-07T06:26:29;16.70;99.90
1686;DHT22;840;47.980;7.830;2023-05-07T06:28:56;16.70;99.90
1686;DHT22;840;47.980;7.830;2023-05-07T06:31:23;16.70;99.90
1686;DHT22;840;47.980;7.830;2023-05-07T06:33:51;16.60;99.90
1686;DHT22;840;47.980;7.830;2023-05-07T06:36:19;16.60;99.90
1686;DHT22;840;47.980;7.830;2023-05-07T06:38:45;16.70;99.90
1686;DHT22;840;47.980;7.830;2023-05-07T06:41:12;16.70;99.90
1686;DHT22;840;47.980;7.830;2023-05-07T06:43:39;16.70;99.90
1686;DHT22;840;47.980;7.830;2023-05-07T06:46:06;16.70;99.90
1686;DHT22;840;47.980;7.830;2023-05-07T06:48:33;16.80;99.90
1686;DHT22;840;47.980;7.830;2023-05-07T06:51:03;16.90;99.90
1686;DHT22;840;47.980;7.830;2023-05-07T06:53:30;17.00;99.90
1686;DHT22;840;47.980;7.830;2023-05-07T06:55:57;17.10;99.90
1686;DHT22;840;47.980;7.830;2023-05-07T06:58:24;17.20;99.90
1686;DHT22;840;47.980;7.830;2023-05-07T07:00:51;17.10;99.90
1686;DHT22;840;47.980;7.830;2023-05-07T07:03:18;17.10;99.90
1686;DHT22;840;47.980;7.830;2023-05-07T07:05:45;17.10;99.90
1686;DHT22;840;47.980;7.830;2023-05-07T07:08:13;17.10;99.90
1686;DHT22;840;47.980;7.830;2023-05-07T07:10:42;17.20;99.90
1686;DHT22;840;47.980;7.830;2023-05-07T07:13:09;17.10;99.90
1686;DHT22;840;47.980;7.830;2023-05-07T07:15:36;17.10;99.90
1686;DHT22;840;47.980;7.830;2023-05-07T07:18:03;17.10;99.90
1686;DHT22;840;47.980;7.830;2023-05-07T07:20:30;17.20;99.90
1686;DHT22;840;47.980;7.830;2023-05-07T07:22:57;17.40;99.90
1686;DHT22;840;47.980;7.830;2023-05-07T07:25:26;17.50;99.90
1686;DHT22;840;47.980;7.830;2023-05-07T07:27:53;17.50;99.90
1686;DHT22;840;47.980;7.830;2023-05-07T07:30:20;17.50;99.90
1686;DHT22;840;47.980;7.830;2023-05-07T07:32:47;17.50;99.90
1686;DHT22;840;47.980;7.830;2023-05-07T07:35:14;17.60;99.90
1686;DHT22;840;47.980;7.830;2023-05-07T07:37:41;17.60;99.90
1686;DHT22;840;47.980;7.830;2023-05-07T07:40:09;17.70;99.90
1686;DHT22;840;47.980;7.830;2023-05-07T07:42:38;17.70;99.90
1686;DHT22;840;47.980;7.830;2023-05-07T07:45:05;17.80;99.90
1686;DHT22;840;47.980;7.830;2023-05-07T07:47:32;17.90;99.90
1686;DHT22;840;47.980;7.830;2023-05-07T07:49:59;18.00;99.90
1686;DHT22;840;47.980;7.830;2023-05-07T07:52:26;18.10;99.90
1686;DHT22;840;47.980;7.830;2023-05-07T07:54:52;18.20;99.90
1686;DHT22;840;47.980;7.830;2023-05-07T07:57:19;18.20;99.90
1686;DHT22;840;47.980;7.830;2023-05-07T07:59:47;18.30;99.90
1686;DHT22;840;47.980;7.830;2023-05-07T08:02:14;18.30;99.90
1686;DHT22;840;47.980;7.830;2023-05-07T08:04:41;18.40;99.90
1686;DHT22;840;47.980;7.830;2023-05-07T08:07:08;18.40;99.90
1686;DHT22;840;47.980;7.830;2023-05-07T08:09:37;18.50;99.90
1686;DHT22;840;47.980;7.830;2023-05-07T08:12:04;18.60;99.90
1686;DHT22;840;47.980;7.830;2023-05-07T08:14:31;18.70;99.90
1686;DHT22;840;47.980;7.830;2023-05-07T08:17:00;18.70;99.90
1686;DHT22;840;47.980;7.830;2023-05-07T08:19:27;18.80;99.90
1686;DHT22;840;47.980;7.830;2023-05-07T08:21:54;19.00;99.90
1686;DHT22;840;47.980;7.830;2023-05-07T08:24:21;19.10;99.90
1686;DHT22;840;47.980;7.830;2023-05-07T08:26:48;19.30;99.90
1686;DHT22;840;47.980;7.830;2023-05-07T08:29:15;19.50;99.90
1686;DHT22;840;47.980;7.830;2023-05-07T08:31:41;19.60;99.90
1686;DHT22;840;47.980;7.830;2023-05-07T08:34:09;19.50;99.90
1686;DHT22;840;47.980;7.830;2023-05-07T08:36:36;19.60;99.90
1686;DHT22;840;47.980;7.830;2023-05-07T08:39:03;19.60;99.90
1686;DHT22;840;47.980;7.830;2023-05-07T08:41:30;19.70;99.90
1686;DHT22;840;47.980;7.830;2023-05-07T08:43:58;19.80;99.90
1686;DHT22;840;47.980;7.830;2023-05-07T08:46:25;19.90;99.90
1686;DHT22;840;47.980;7.830;2023-05-07T08:48:53;20.00;99.90
1686;DHT22;840;47.980;7.830;2023-05-07T08:51:21;19.90;99.90
1686;DHT22;840;47.980;7.830;2023-05-07T08:53:49;19.90;99.90
1686;DHT22;840;47.980;7.830;2023-05-07T08:56:17;19.80;99.90
1686;DHT22;840;47.980;7.830;2023-05-07T08:58:46;19.70;99.90
1686;DHT22;840;47.980;7.830;2023-05-07T09:01:14;19.80;99.90
1686;DHT22;840;47.980;7.830;2023-05-07T09:03:41;19.80;99.90
1686;DHT22;840;47.980;7.830;2023-05-07T09:06:10;19.90;99.90
1686;DHT22;840;47.980;7.830;2023-05-07T09:08:38;19.90;99.90
1686;DHT22;840;47.980;7.830;2023-05-07T09:11:05;19.90;99.90
1686;DHT22;840;47.980;7.830;2023-05-07T09:13:32;19.90;99.90
1686;DHT22;840;47.980;7.830;2023-05-07T09:16:09;19.90;99.90
1686;DHT22;840;47.980;7.830;2023-05-07T09:18:40;20.00;99.90
1686;DHT22;840;47.980;7.830;2023-05-07T09:21:10;20.20;99.90
1686;DHT22;840;47.980;7.830;2023-05-07T09:23:38;20.30;99.90
1686;DHT22;840;47.980;7.830;2023-05-07T09:26:07;20.50;99.90
1686;DHT22;840;47.980;7.830;2023-05-07T09:28:39;20.60;99.90
1686;DHT22;840;47.980;7.830;2023-05-07T09:31:06;20.80;99.90
1686;DHT22;840;47.980;7.830;2023-05-07T09:33:33;20.80;99.90
1686;DHT22;840;47.980;7.830;2023-05-07T09:36:04;20.90;99.90
1686;DHT22;840;47.980;7.830;2023-05-07T09:38:34;21.00;99.90
1686;DHT22;840;47.980;7.830;2023-05-07T09:41:04;21.10;99.90
1686;DHT22;840;47.980;7.830;2023-05-07T09:43:35;21.10;99.90
1686;DHT22;840;47.980;7.830;2023-05-07T09:46:03;21.20;99.90
1686;DHT22;840;47.980;7.830;2023-05-07T09:48:36;21.10;99.90
1686;DHT22;840;47.980;7.830;2023-05-07T09:51:11;21.20;99.90
1686;DHT22;840;47.980;7.830;2023-05-07T09:53:38;21.20;99.90
1686;DHT22;840;47.980;7.830;2023-05-07T09:56:08;21.20;99.90
1686;DHT22;840;47.980;7.830;2023-05-07T09:58:37;21.30;99.90
1686;DHT22;840;47.980;7.830;2023-05-07T10:01:05;21.30;99.90
1686;DHT22;840;47.980;7.830;2023-05-07T10:03:33;21.20;99.90
1686;DHT22;840;47.980;7.830;2023-05-07T10:06:02;21.10;99.90
1686;DHT22;840;47.980;7.830;2023-05-07T10:08:31;21.00;99.90
1686;DHT22;840;47.980;7.830;2023-05-07T10:10:59;20.80;99.90
1686;DHT22;840;47.980;7.830;2023-05-07T10:13:27;20.60;99.90
1686;DHT22;840;47.980;7.830;2023-05-07T10:15:55;20.30;99.90
1686;DHT22;840;47.980;7.830;2023-05-07T10:18:23;20.00;99.90
1686;DHT22;840;47.980;7.830;2023-05-07T10:21:01;19.70;99.90
1686;DHT22;840;47.980;7.830;2023-05-07T10:23:29;19.50;99.90
1686;DHT22;840;47.980;7.830;2023-05-07T10:25:59;19.40;99.90
1686;DHT22;840;47.980;7.830;2023-05-07T10:28:29;19.10;99.90
1686;DHT22;840;47.980;7.830;2023-05-07T10:31:04;18.90;99.90
1686;DHT22;840;47.980;7.830;2023-05-07T10:33:34;18.70;99.90
1686;DHT22;840;47.980;7.830;2023-05-07T10:36:02;18.50;99.90
1686;DHT22;840;47.980;7.830;2023-05-07T10:38:31;18.40;99.90
1686;DHT22;840;47.980;7.830;2023-05-07T10:40:58;18.30;99.90
1686;DHT22;840;47.980;7.830;2023-05-07T10:43:26;18.30;99.90
1686;DHT22;840;47.980;7.830;2023-05-07T10:46:13;18.30;99.90
1686;DHT22;840;47.980;7.830;2023-05-07T10:49:08;18.30;99.90
1686;DHT22;840;47.980;7.830;2023-05-07T10:51:37;18.20;99.90
1686;DHT22;840;47.980;7.830;2023-05-07T10:54:21;18.20;99.90
1686;DHT22;840;47.980;7.830;2023-05-07T10:56:49;18.30;99.90
1686;DHT22;840;47.980;7.830;2023-05-07T10:59:34;18.40;99.90
1686;DHT22;840;47.980;7.830;2023-05-07T11:02:07;18.60;99.90
1686;DHT22;840;47.980;7.830;2023-05-07T11:04:35;18.80;99.90
1686;DHT22;840;47.980;7.830;2023-05-07T11:07:26;19.00;99.90
1686;DHT22;840;47.980;7.830;2023-05-07T11:10:04;19.10;99.90
1686;DHT22;840;47.980;7.830;2023-05-07T11:12:53;19.20;99.90
1686;DHT22;840;47.980;7.830;2023-05-07T11:15:48;19.60;99.90
1686;DHT22;840;47.980;7.830;2023-05-07T11:18:17;19.90;99.90
1686;DHT22;840;47.980;7.830;2023-05-07T11:20:49;20.20;99.90
1686;DHT22;840;47.980;7.830;2023-05-07T11:23:55;20.10;99.90
1686;DHT22;840;47.980;7.830;2023-05-07T11:26:24;20.30;99.90
1686;DHT22;840;47.980;7.830;2023-05-07T11:28:52;20.50;99.90
1686;DHT22;840;47.980;7.830;2023-05-07T11:31:25;20.50;99.90
1686;DHT22;840;47.980;7.830;2023-05-07T11:34:06;20.50;99.90
1686;DHT22;840;47.980;7.830;2023-05-07T11:36:34;20.60;99.90
1686;DHT22;840;47.980;7.830;2023-05-07T11:39:02;20.80;99.90
1686;DHT22;840;47.980;7.830;2023-05-07T11:41:35;20.80;99.90
1686;DHT22;840;47.980;7.830;2023-05-07T11:44:03;20.90;99.90
1686;DHT22;840;47.980;7.830;2023-05-07T11:46:32;21.00;99.90
1686;DHT22;840;47.980;7.830;2023-05-07T11:49:00;21.10;99.90
1686;DHT22;840;47.980;7.830;2023-05-07T11:51:27;21.30;99.90
1686;DHT22;840;47.980;7.830;2023-05-07T11:53:54;21.20;99.90
1686;DHT22;840;47.980;7.830;2023-05-07T11:56:21;21.30;99.90
1686;DHT22;840;47.980;7.830;2023-05-07T11:58:48;21.30;99.90
1686;DHT22;840;47.980;7.830;2023-05-07T12:01:17;21.20;99.90
1686;DHT22;840;47.980;7.830;2023-05-07T12:03:45;21.20;99.90
1686;DHT22;840;47.980;7.830;2023-05-07T12:06:14;21.10;99.90
1686;DHT22;840;47.980;7.830;2023-05-07T12:08:42;21.10;99.90
1686;DHT22;840;47.980;7.830;2023-05-07T12:11:10;21.10;99.90
1686;DHT22;840;47.980;7.830;2023-05-07T12:13:39;21.30;99.90
1686;DHT22;840;47.980;7.830;2023-05-07T12:16:07;21.40;99.90
1686;DHT22;840;47.980;7.830;2023-05-07T12:18:35;21.50;99.90
1686;DHT22;840;47.980;7.830;2023-05-07T12:21:04;21.70;99.90
1686;DHT22;840;47.980;7.830;2023-05-07T12:23:32;21.80;99.90
1686;DHT22;840;47.980;7.830;2023-05-07T12:26:00;22.00;99.90
1686;DHT22;840;47.980;7.830;2023-05-07T12:28:28;22.10;99.90
1686;DHT22;840;47.980;7.830;2023-05-07T12:30:56;22.20;99.90
1686;DHT22;840;47.980;7.830;2023-05-07T12:33:25;22.20;99.90
1686;DHT22;840;47.980;7.830;2023-05-07T12:35:54;22.40;99.90
1686;DHT22;840;47.980;7.830;2023-05-07T12:38:23;22.50;99.90
1686;DHT22;840;47.980;7.830;2023-05-07T12:40:53;22.60;99.90
1686;DHT22;840;47.980;7.830;2023-05-07T12:43:21;22.60;99.90
1686;DHT22;840;47.980;7.830;2023-05-07T12:45:49;22.60;99.90
1686;DHT22;840;47.980;7.830;2023-05-07T12:48:17;22.40;99.90
1686;DHT22;840;47.980;7.830;2023-05-07T12:50:49;22.20;99.90
1686;DHT22;840;47.980;7.830;2023-05-07T12:53:15;22.00;99.90
1686;DHT22;840;47.980;7.830;2023-05-07T12:55:45;21.50;99.90
1686;DHT22;840;47.980;7.830;2023-05-07T12:58:16;21.50;99.90
1686;DHT22;840;47.980;7.830;2023-05-07T13:00:43;21.60;99.90
1686;DHT22;840;47.980;7.830;2023-05-07T13:03:10;21.60;99.90
1686;DHT22;840;47.980;7.830;2023-05-07T13:05:38;21.60;99.90
1686;DHT22;840;47.980;7.830;2023-05-07T13:08:05;21.60;99.90
1686;DHT22;840;47.980;7.830;2023-05-07T13:10:34;21.60;99.90
1686;DHT22;840;47.980;7.830;2023-05-07T13:13:03;21.50;99.90
1686;DHT22;840;47.980;7.830;2023-05-07T13:15:30;21.60;99.90
1686;DHT22;840;47.980;7.830;2023-05-07T13:17:57;21.60;99.90
1686;DHT22;840;47.980;7.830;2023-05-07T13:20:23;21.50;99.90
1686;DHT22;840;47.980;7.830;2023-05-07T13:22:50;21.50;99.90
1686;DHT22;840;47.980;7.830;2023-05-07T13:25:17;21.50;99.90
1686;DHT22;840;47.980;7.830;2023-05-07T13:27:44;21.60;99.90
1686;DHT22;840;47.980;7.830;2023-05-07T13:30:13;21.70;99.90
1686;DHT22;840;47.980;7.830;2023-05-07T13:32:40;21.80;99.90
1686;DHT22;840;47.980;7.830;2023-05-07T13:35:07;21.60;99.90
1686;DHT22;840;47.980;7.830;2023-05-07T13:37:34;21.60;99.90
1686;DHT22;840;47.980;7.830;2023-05-07T13:40:05;21.60;99.90
1686;DHT22;840;47.980;7.830;2023-05-07T13:42:32;21.60;99.90
1686;DHT22;840;47.980;7.830;2023-05-07T13:44:59;21.80;99.90
1686;DHT22;840;47.980;7.830;2023-05-07T13:47:27;21.90;99.90
1686;DHT22;840;47.980;7.830;2023-05-07T13:49:54;22.10;99.90
1686;DHT22;840;47.980;7.830;2023-05-07T13:52:21;22.40;99.90
1686;DHT22;840;47.980;7.830;2023-05-07T13:54:47;22.40;99.90
1686;DHT22;840;47.980;7.830;2023-05-07T13:57:14;22.00;99.90
1686;DHT22;840;47.980;7.830;2023-05-07T13:59:41;22.00;99.90
1686;DHT22;840;47.980;7.830;2023-05-07T14:02:07;22.10;99.90
1686;DHT22;840;47.980;7.830;2023-05-07T14:04:37;22.10;99.90
1686;DHT22;840;47.980;7.830;2023-05-07T14:07:03;22.00;99.90
1686;DHT22;840;47.980;7.830;2023-05-07T14:09:30;21.70;99.90
1686;DHT22;840;47.980;7.830;2023-05-07T14:11:58;21.60;99.90
1686;DHT22;840;47.980;7.830;2023-05-07T14:14:26;21.70;99.90
1686;DHT22;840;47.980;7.830;2023-05-07T14:16:57;21.80;99.90
1686;DHT22;840;47.980;7.830;2023-05-07T14:19:23;21.90;99.90
1686;DHT22;840;47.980;7.830;2023-05-07T14:21:52;21.90;99.90
1686;DHT22;840;47.980;7.830;2023-05-07T14:24:19;22.10;99.90
1686;DHT22;840;47.980;7.830;2023-05-07T14:26:46;22.40;99.90
1686;DHT22;840;47.980;7.830;2023-05-07T14:29:12;22.70;99.90
1686;DHT22;840;47.980;7.830;2023-05-07T14:31:41;23.00;99.90
1686;DHT22;840;47.980;7.830;2023-05-07T14:34:08;23.40;99.90
1686;DHT22;840;47.980;7.830;2023-05-07T14:36:34;23.70;99.90
1686;DHT22;840;47.980;7.830;2023-05-07T14:39:02;23.90;99.90
1686;DHT22;840;47.980;7.830;2023-05-07T14:41:29;24.20;99.90
1686;DHT22;840;47.980;7.830;2023-05-07T14:43:57;24.50;99.90
1686;DHT22;840;47.980;7.830;2023-05-07T14:46:24;24.80;99.90
1686;DHT22;840;47.980;7.830;2023-05-07T14:48:51;25.00;99.90
1686;DHT22;840;47.980;7.830;2023-05-07T14:51:18;25.30;99.90
1686;DHT22;840;47.980;7.830;2023-05-07T14:53:45;25.50;99.90
1686;DHT22;840;47.980;7.830;2023-05-07T14:56:13;25.60;99.90
1686;DHT22;840;47.980;7.830;2023-05-07T14:58:40;25.10;99.90
1686;DHT22;840;47.980;7.830;2023-05-07T15:01:07;24.90;99.90
1686;DHT22;840;47.980;7.830;2023-05-07T15:03:34;24.60;99.90
1686;DHT22;840;47.980;7.830;2023-05-07T15:06:02;24.30;99.90
1686;DHT22;840;47.980;7.830;2023-05-07T15:08:29;23.90;99.90
1686;DHT22;840;47.980;7.830;2023-05-07T15:10:57;23.80;99.90
1686;DHT22;840;47.980;7.830;2023-05-07T15:13:25;23.70;99.90
1686;DHT22;840;47.980;7.830;2023-05-07T15:15:51;23.40;99.90
1686;DHT22;840;47.980;7.830;2023-05-07T15:18:18;23.40;99.90
1686;DHT22;840;47.980;7.830;2023-05-07T15:20:45;23.20;99.90
1686;DHT22;840;47.980;7.830;2023-05-07T15:23:12;23.10;99.90
1686;DHT22;840;47.980;7.830;2023-05-07T15:25:39;23.20;99.90
1686;DHT22;840;47.980;7.830;2023-05-07T15:28:06;23.20;99.90
1686;DHT22;840;47.980;7.830;2023-05-07T15:30:34;22.90;99.90
1686;DHT22;840;47.980;7.830;2023-05-07T15:33:01;22.90;99.90
1686;DHT22;840;47.980;7.830;2023-05-07T15:35:29;22.80;99.90
1686;DHT22;840;47.980;7.830;2023-05-07T15:37:55;22.90;99.90
1686;DHT22;840;47.980;7.830;2023-05-07T15:40:23;22.80;99.90
1686;DHT22;840;47.980;7.830;2023-05-07T15:42:50;22.80;99.90
1686;DHT22;840;47.980;7.830;2023-05-07T15:45:20;22.80;99.90
1686;DHT22;840;47.980;7.830;2023-05-07T15:47:48;22.90;99.90
1686;DHT22;840;47.980;7.830;2023-05-07T15:50:15;23.00;99.90
1686;DHT22;840;47.980;7.830;2023-05-07T15:52:42;23.10;99.90
1686;DHT22;840;47.980;7.830;2023-05-07T15:55:12;23.30;99.90
1686;DHT22;840;47.980;7.830;2023-05-07T15:57:39;23.30;99.90
1686;DHT22;840;47.980;7.830;2023-05-07T16:00:06;23.20;99.90
1686;DHT22;840;47.980;7.830;2023-05-07T16:02:37;23.00;99.90
1686;DHT22;840;47.980;7.830;2023-05-07T16:05:06;22.90;99.90
1686;DHT22;840;47.980;7.830;2023-05-07T16:07:35;22.90;99.90
1686;DHT22;840;47.980;7.830;2023-05-07T16:10:02;22.80;99.90
1686;DHT22;840;47.980;7.830;2023-05-07T16:12:29;22.80;99.90
1686;DHT22;840;47.980;7.830;2023-05-07T16:14:56;22.90;99.90
1686;DHT22;840;47.980;7.830;2023-05-07T16:17:23;23.00;99.90
1686;DHT22;840;47.980;7.830;2023-05-07T16:19:50;23.10;99.90
1686;DHT22;840;47.980;7.830;2023-05-07T16:22:19;23.10;99.90